Terminal Aerodrome Forecast
Issued by NWS Wilmington, NC

Home | Current Version | Previous Version | Text Only | Print | Product List | Glossary On
Versions: 1 2 3 4 5 6 7 8 9 10 11 12 13 14 15 16 17 18 19
000
FTUS42 KILM 190542 CCA
TAFILM
TAF COR
KILM 190542Z 1906/2006 05003KT P6SM VCSH SCT025 BKN100
      TEMPO 1909/1913 BKN025
     FM191400 09010KT P6SM -SHRA BKN015
      TEMPO 1917/1919 2SM +SHRA BKN012
     FM191900 14011G20KT 5SM -RA BR SCT007 OVC015
     FM200000 18014G20KT P6SM VCSH BKN007=

USA.gov is the U.S. government's official web portal to all federal, state and local government web resources and services.